»·PEaware :: WAT169 KOXR-KSNA

WAT169 :: KOXR-KSNA

FLIGHT INFORMATION

Flight Status: Arrived
Operator:
Walker Air Transport
More flights by this operator :: More flights under this callsign
Pilot: Marty P. (27464)
Aircraft: BEECH AIRCRAFT SUPER KING AIR 350
(B350)
More flights by this aircraft type
Origin: KOXR Oxnard
United States
Destination: KSNA John Wayne-Orange Co
United States
More flights between these airports :: More routes between these airports
Route: +VTU V208 SXC SLI
File this flight plan on PilotEdge
Remarks:
Altitude:
(Current/Filed)
7,000ft
Speed:
(Current/Filed)
220kts
Departed: 27-Oct-20 04:41 PM
Arrived: 27-Oct-20 05:15 PM
Distance/Time
Traveled:
74nm/0:34
Distance/Time
To Go:
Arrived

Flight Plot

Page will automatically refresh every two minutes.


Map Options




Map Legend


Flown Route
Filed Route
Departure Airport
Arrival Airport
Navaid (VOR, NDB)
Fix

Horizontal Profiles

Position Reports

Time Latitude Longitude Heading Altitude Ground
Speed
27-Oct-20 16:26 34.199025 -119.205658 359 40ft 0kts
27-Oct-20 16:27 34.199025 -119.205658 359 40ft 0kts
27-Oct-20 16:28 34.199025 -119.205658 359 40ft 0kts
27-Oct-20 16:29 34.199025 -119.205658 359 40ft 0kts
27-Oct-20 16:30 34.199025 -119.205658 359 40ft 0kts
27-Oct-20 16:31 34.199025 -119.205658 359 40ft 0kts
27-Oct-20 16:32 34.199025 -119.205658 359 40ft 0kts
27-Oct-20 16:34 34.199025 -119.205658 359 40ft 0kts
27-Oct-20 16:35 34.199025 -119.205658 359 40ft 0kts
27-Oct-20 16:36 34.199025 -119.205658 359 40ft 0kts
27-Oct-20 16:37 34.199025 -119.205658 359 40ft 0kts
27-Oct-20 16:38 34.199775 -119.203771 90 41ft 18kts
27-Oct-20 16:39 34.199733 -119.198365 91 44ft 13kts
27-Oct-20 16:40 34.200715 -119.197642 300 44ft 5kts
27-Oct-20 16:41 34.200212 -119.223967 266 673ft 139kts
27-Oct-20 16:42 34.195149 -119.275555 266 2830ft 170kts
27-Oct-20 16:43 34.189822 -119.333052 270 4862ft 177kts
27-Oct-20 16:44 34.161722 -119.368384 152 6587ft 196kts
27-Oct-20 16:45 34.145448 -119.302307 97 7060ft 245kts
27-Oct-20 16:46 34.134236 -119.214383 96 7043ft 277kts
27-Oct-20 16:47 34.123177 -119.121972 96 7036ft 276kts
27-Oct-20 16:48 34.078786 -119.050310 156 7037ft 280kts
27-Oct-20 16:49 34.001961 -119.037798 175 7037ft 280kts
27-Oct-20 16:50 33.923718 -119.029937 174 7038ft 284kts
27-Oct-20 16:51 33.844577 -119.021764 174 7034ft 286kts
27-Oct-20 16:51 33.782150 -119.000237 140 7029ft 283kts
27-Oct-20 16:53 33.722683 -118.917747 128 7035ft 281kts
27-Oct-20 16:53 33.680588 -118.857771 128 6987ft 282kts
27-Oct-20 16:55 33.622080 -118.773872 127 6989ft 281kts
27-Oct-20 16:55 33.580195 -118.713831 127 6989ft 281kts
27-Oct-20 16:56 33.529990 -118.641980 127 6989ft 280kts
27-Oct-20 16:57 33.479727 -118.570232 127 6990ft 281kts
27-Oct-20 16:58 33.429499 -118.498662 127 6989ft 280kts
27-Oct-20 16:59 33.407432 -118.414633 74 6986ft 269kts
27-Oct-20 17:00 33.452440 -118.347465 52 7004ft 264kts
27-Oct-20 17:01 33.496816 -118.276592 51 6990ft 266kts
27-Oct-20 17:02 33.541863 -118.204988 51 5679ft 256kts
27-Oct-20 17:03 33.580538 -118.143920 51 5018ft 201kts
27-Oct-20 17:04 33.624869 -118.099544 30 5048ft 217kts
27-Oct-20 17:05 33.678854 -118.065271 27 5043ft 219kts
27-Oct-20 17:06 33.732728 -118.031246 27 4290ft 219kts
27-Oct-20 17:07 33.785514 -117.998011 27 3011ft 205kts
27-Oct-20 17:08 33.828785 -117.961679 75 2828ft 197kts
27-Oct-20 17:09 33.807873 -117.900519 117 2300ft 205kts
27-Oct-20 17:10 33.783703 -117.847006 117 1984ft 136kts
27-Oct-20 17:11 33.754495 -117.822818 170 2023ft 153kts
27-Oct-20 17:12 33.719858 -117.840810 207 904ft 118kts
27-Oct-20 17:13 33.690870 -117.859206 207 305ft 119kts
27-Oct-20 17:14 33.670292 -117.872183 192 61ft 12kts
27-Oct-20 17:15 33.670626 -117.869369 40 61ft 15kts
27-Oct-20 17:16 33.671817 -117.867275 25 61ft 3kts
27-Oct-20 17:17 33.671833 -117.867266 25 61ft 0kts
27-Oct-20 17:18 33.671833 -117.867266 25 61ft 0kts

Navigation Log

Ident Type
Flight plan parsing failed, navigation log unavailable